sensor_id;sensor_type;location;lat;lon;timestamp;temperature;humidity
19152;DHT22;9708;53.114;9.388;2023-07-29T00:00:08;17.90;99.90
19152;DHT22;9708;53.114;9.388;2023-07-29T00:02:36;17.90;99.90
19152;DHT22;9708;53.114;9.388;2023-07-29T00:05:03;18.00;99.90
19152;DHT22;9708;53.114;9.388;2023-07-29T00:07:30;17.90;99.90
19152;DHT22;9708;53.114;9.388;2023-07-29T00:09:58;18.00;99.90
19152;DHT22;9708;53.114;9.388;2023-07-29T00:12:25;18.10;99.90
19152;DHT22;9708;53.114;9.388;2023-07-29T00:14:52;18.00;99.90
19152;DHT22;9708;53.114;9.388;2023-07-29T00:17:19;18.00;99.90
19152;DHT22;9708;53.114;9.388;2023-07-29T00:19:46;18.00;99.90
19152;DHT22;9708;53.114;9.388;2023-07-29T00:22:13;18.10;99.90
19152;DHT22;9708;53.114;9.388;2023-07-29T00:24:40;18.10;99.90
19152;DHT22;9708;53.114;9.388;2023-07-29T00:27:08;18.10;99.90
19152;DHT22;9708;53.114;9.388;2023-07-29T00:29:35;18.20;99.90
19152;DHT22;9708;53.114;9.388;2023-07-29T00:32:02;18.20;99.90
19152;DHT22;9708;53.114;9.388;2023-07-29T00:34:29;18.20;99.90
19152;DHT22;9708;53.114;9.388;2023-07-29T00:36:56;18.20;99.90
19152;DHT22;9708;53.114;9.388;2023-07-29T00:39:23;18.30;99.90
19152;DHT22;9708;53.114;9.388;2023-07-29T00:41:49;18.30;99.90
19152;DHT22;9708;53.114;9.388;2023-07-29T00:44:18;18.30;99.90
19152;DHT22;9708;53.114;9.388;2023-07-29T00:46:46;18.30;99.90
19152;DHT22;9708;53.114;9.388;2023-07-29T00:49:13;18.20;99.90
19152;DHT22;9708;53.114;9.388;2023-07-29T00:51:40;18.10;99.90
19152;DHT22;9708;53.114;9.388;2023-07-29T00:54:07;18.10;99.90
19152;DHT22;9708;53.114;9.388;2023-07-29T00:56:34;18.10;99.90
19152;DHT22;9708;53.114;9.388;2023-07-29T00:59:01;18.10;99.90
19152;DHT22;9708;53.114;9.388;2023-07-29T01:01:30;18.10;99.90
19152;DHT22;9708;53.114;9.388;2023-07-29T01:03:57;18.00;99.90
19152;DHT22;9708;53.114;9.388;2023-07-29T01:06:31;18.00;99.90
19152;DHT22;9708;53.114;9.388;2023-07-29T01:09:02;17.90;99.90
19152;DHT22;9708;53.114;9.388;2023-07-29T01:11:38;17.90;99.90
19152;DHT22;9708;53.114;9.388;2023-07-29T01:14:17;17.80;99.90
19152;DHT22;9708;53.114;9.388;2023-07-29T01:16:51;17.70;99.90
19152;DHT22;9708;53.114;9.388;2023-07-29T01:19:26;17.70;99.90
19152;DHT22;9708;53.114;9.388;2023-07-29T01:21:58;17.60;99.90
19152;DHT22;9708;53.114;9.388;2023-07-29T01:24:26;17.60;99.90
19152;DHT22;9708;53.114;9.388;2023-07-29T01:26:53;17.50;99.90
19152;DHT22;9708;53.114;9.388;2023-07-29T01:29:20;17.50;99.90
19152;DHT22;9708;53.114;9.388;2023-07-29T01:31:48;17.40;99.90
19152;DHT22;9708;53.114;9.388;2023-07-29T01:34:22;17.50;99.90
19152;DHT22;9708;53.114;9.388;2023-07-29T01:36:52;17.50;99.90
19152;DHT22;9708;53.114;9.388;2023-07-29T01:39:21;17.60;99.90
19152;DHT22;9708;53.114;9.388;2023-07-29T01:41:50;17.70;99.90
19152;DHT22;9708;53.114;9.388;2023-07-29T01:44:18;17.60;99.90
19152;DHT22;9708;53.114;9.388;2023-07-29T01:46:45;17.60;99.90
19152;DHT22;9708;53.114;9.388;2023-07-29T01:49:12;17.70;99.90
19152;DHT22;9708;53.114;9.388;2023-07-29T01:51:39;17.70;99.90
19152;DHT22;9708;53.114;9.388;2023-07-29T01:54:06;17.80;99.90
19152;DHT22;9708;53.114;9.388;2023-07-29T01:56:33;17.80;99.90
19152;DHT22;9708;53.114;9.388;2023-07-29T01:59:01;17.80;99.90
19152;DHT22;9708;53.114;9.388;2023-07-29T02:01:28;17.70;99.90
19152;DHT22;9708;53.114;9.388;2023-07-29T02:03:56;17.70;99.90
19152;DHT22;9708;53.114;9.388;2023-07-29T02:06:23;17.80;99.90
19152;DHT22;9708;53.114;9.388;2023-07-29T02:08:50;17.80;99.90
19152;DHT22;9708;53.114;9.388;2023-07-29T02:11:17;17.70;99.90
19152;DHT22;9708;53.114;9.388;2023-07-29T02:13:45;17.70;99.90
19152;DHT22;9708;53.114;9.388;2023-07-29T02:16:14;17.60;99.90
19152;DHT22;9708;53.114;9.388;2023-07-29T02:18:41;17.60;99.90
19152;DHT22;9708;53.114;9.388;2023-07-29T02:21:07;17.60;99.90
19152;DHT22;9708;53.114;9.388;2023-07-29T02:23:34;17.60;99.90
19152;DHT22;9708;53.114;9.388;2023-07-29T02:26:01;17.50;99.90
19152;DHT22;9708;53.114;9.388;2023-07-29T02:28:28;17.50;99.90
19152;DHT22;9708;53.114;9.388;2023-07-29T02:31:12;17.50;99.90
19152;DHT22;9708;53.114;9.388;2023-07-29T02:33:40;17.60;99.90
19152;DHT22;9708;53.114;9.388;2023-07-29T02:36:07;17.50;99.90
19152;DHT22;9708;53.114;9.388;2023-07-29T02:38:33;17.50;99.90
19152;DHT22;9708;53.114;9.388;2023-07-29T02:41:00;17.50;99.90
19152;DHT22;9708;53.114;9.388;2023-07-29T02:43:27;17.40;99.90
19152;DHT22;9708;53.114;9.388;2023-07-29T02:45:54;17.40;99.90
19152;DHT22;9708;53.114;9.388;2023-07-29T02:48:20;17.40;99.90
19152;DHT22;9708;53.114;9.388;2023-07-29T02:50:49;17.40;99.90
19152;DHT22;9708;53.114;9.388;2023-07-29T02:53:15;17.40;99.90
19152;DHT22;9708;53.114;9.388;2023-07-29T02:55:42;17.30;99.90
19152;DHT22;9708;53.114;9.388;2023-07-29T02:58:09;17.40;99.90
19152;DHT22;9708;53.114;9.388;2023-07-29T03:00:36;17.40;99.90
19152;DHT22;9708;53.114;9.388;2023-07-29T03:03:04;17.40;99.90
19152;DHT22;9708;53.114;9.388;2023-07-29T03:05:31;17.30;99.90
19152;DHT22;9708;53.114;9.388;2023-07-29T03:07:59;17.30;99.90
19152;DHT22;9708;53.114;9.388;2023-07-29T03:10:26;17.30;99.90
19152;DHT22;9708;53.114;9.388;2023-07-29T03:12:54;17.30;99.90
19152;DHT22;9708;53.114;9.388;2023-07-29T03:15:23;17.30;99.90
19152;DHT22;9708;53.114;9.388;2023-07-29T03:17:50;17.20;99.90
19152;DHT22;9708;53.114;9.388;2023-07-29T03:20:17;17.20;99.90
19152;DHT22;9708;53.114;9.388;2023-07-29T03:22:44;17.10;99.90
19152;DHT22;9708;53.114;9.388;2023-07-29T03:25:13;17.00;99.90
19152;DHT22;9708;53.114;9.388;2023-07-29T03:27:39;17.00;99.90
19152;DHT22;9708;53.114;9.388;2023-07-29T03:30:07;17.00;99.90
19152;DHT22;9708;53.114;9.388;2023-07-29T03:32:33;17.10;99.90
19152;DHT22;9708;53.114;9.388;2023-07-29T03:35:00;17.10;99.90
19152;DHT22;9708;53.114;9.388;2023-07-29T03:37:27;17.10;99.90
19152;DHT22;9708;53.114;9.388;2023-07-29T03:39:54;17.10;99.90
19152;DHT22;9708;53.114;9.388;2023-07-29T03:42:22;17.10;99.90
19152;DHT22;9708;53.114;9.388;2023-07-29T03:44:49;17.10;99.90
19152;DHT22;9708;53.114;9.388;2023-07-29T03:47:21;17.10;99.90
19152;DHT22;9708;53.114;9.388;2023-07-29T03:49:48;17.10;99.90
19152;DHT22;9708;53.114;9.388;2023-07-29T03:52:15;17.10;99.90
19152;DHT22;9708;53.114;9.388;2023-07-29T03:54:42;17.10;99.90
19152;DHT22;9708;53.114;9.388;2023-07-29T03:57:08;17.10;99.90
19152;DHT22;9708;53.114;9.388;2023-07-29T03:59:37;17.10;99.90
19152;DHT22;9708;53.114;9.388;2023-07-29T04:02:04;17.10;99.90
19152;DHT22;9708;53.114;9.388;2023-07-29T04:04:31;17.20;99.90
19152;DHT22;9708;53.114;9.388;2023-07-29T04:06:58;17.20;99.90
19152;DHT22;9708;53.114;9.388;2023-07-29T04:09:24;17.30;99.90
19152;DHT22;9708;53.114;9.388;2023-07-29T04:11:51;17.40;99.90
19152;DHT22;9708;53.114;9.388;2023-07-29T04:14:18;17.40;99.90
19152;DHT22;9708;53.114;9.388;2023-07-29T04:16:46;17.40;99.90
19152;DHT22;9708;53.114;9.388;2023-07-29T04:19:14;17.40;99.90
19152;DHT22;9708;53.114;9.388;2023-07-29T04:21:41;17.50;99.90
19152;DHT22;9708;53.114;9.388;2023-07-29T04:24:08;17.40;99.90
19152;DHT22;9708;53.114;9.388;2023-07-29T04:26:35;17.40;99.90
19152;DHT22;9708;53.114;9.388;2023-07-29T04:29:01;17.50;99.90
19152;DHT22;9708;53.114;9.388;2023-07-29T04:31:28;17.50;99.90
19152;DHT22;9708;53.114;9.388;2023-07-29T04:33:56;17.50;99.90
19152;DHT22;9708;53.114;9.388;2023-07-29T04:36:31;17.60;99.90
19152;DHT22;9708;53.114;9.388;2023-07-29T04:38:58;17.50;99.90
19152;DHT22;9708;53.114;9.388;2023-07-29T04:41:25;17.50;99.90
19152;DHT22;9708;53.114;9.388;2023-07-29T04:43:52;17.60;99.90
19152;DHT22;9708;53.114;9.388;2023-07-29T04:46:19;17.70;99.90
19152;DHT22;9708;53.114;9.388;2023-07-29T04:48:45;17.80;99.90
19152;DHT22;9708;53.114;9.388;2023-07-29T04:51:12;17.80;99.90
19152;DHT22;9708;53.114;9.388;2023-07-29T04:53:40;17.90;99.90
19152;DHT22;9708;53.114;9.388;2023-07-29T04:56:07;18.00;99.90
19152;DHT22;9708;53.114;9.388;2023-07-29T04:58:34;18.00;99.90
19152;DHT22;9708;53.114;9.388;2023-07-29T05:01:01;18.00;99.90
19152;DHT22;9708;53.114;9.388;2023-07-29T05:03:28;17.90;99.90
19152;DHT22;9708;53.114;9.388;2023-07-29T05:05:55;18.00;99.90
19152;DHT22;9708;53.114;9.388;2023-07-29T05:08:22;18.10;99.90
19152;DHT22;9708;53.114;9.388;2023-07-29T05:10:51;18.10;99.90
19152;DHT22;9708;53.114;9.388;2023-07-29T05:13:18;18.10;99.90
19152;DHT22;9708;53.114;9.388;2023-07-29T05:15:46;18.10;99.90
19152;DHT22;9708;53.114;9.388;2023-07-29T05:18:13;18.00;99.90
19152;DHT22;9708;53.114;9.388;2023-07-29T05:20:40;18.00;99.90
19152;DHT22;9708;53.114;9.388;2023-07-29T05:23:07;18.00;99.90
19152;DHT22;9708;53.114;9.388;2023-07-29T05:25:33;18.10;99.90
19152;DHT22;9708;53.114;9.388;2023-07-29T05:28:02;18.10;99.90
19152;DHT22;9708;53.114;9.388;2023-07-29T05:30:30;18.30;99.90
19152;DHT22;9708;53.114;9.388;2023-07-29T05:32:57;18.30;99.90
19152;DHT22;9708;53.114;9.388;2023-07-29T05:35:24;18.50;99.90
19152;DHT22;9708;53.114;9.388;2023-07-29T05:37:51;18.60;99.90
19152;DHT22;9708;53.114;9.388;2023-07-29T05:40:18;18.70;99.90
19152;DHT22;9708;53.114;9.388;2023-07-29T05:42:45;18.80;99.90
19152;DHT22;9708;53.114;9.388;2023-07-29T05:45:13;18.60;99.90
19152;DHT22;9708;53.114;9.388;2023-07-29T05:47:40;18.60;99.90
19152;DHT22;9708;53.114;9.388;2023-07-29T05:50:07;18.60;99.90
19152;DHT22;9708;53.114;9.388;2023-07-29T05:52:34;18.60;99.90
19152;DHT22;9708;53.114;9.388;2023-07-29T05:55:01;18.70;99.90
19152;DHT22;9708;53.114;9.388;2023-07-29T05:57:28;18.70;99.90
19152;DHT22;9708;53.114;9.388;2023-07-29T05:59:55;18.80;99.90
19152;DHT22;9708;53.114;9.388;2023-07-29T06:02:23;18.80;99.90
19152;DHT22;9708;53.114;9.388;2023-07-29T06:04:50;18.80;99.90
19152;DHT22;9708;53.114;9.388;2023-07-29T06:07:16;18.80;99.90
19152;DHT22;9708;53.114;9.388;2023-07-29T06:09:43;18.90;99.90
19152;DHT22;9708;53.114;9.388;2023-07-29T06:12:10;19.00;99.90
19152;DHT22;9708;53.114;9.388;2023-07-29T06:14:37;18.90;99.90
19152;DHT22;9708;53.114;9.388;2023-07-29T06:17:04;18.90;99.90
19152;DHT22;9708;53.114;9.388;2023-07-29T06:19:33;19.00;99.90
19152;DHT22;9708;53.114;9.388;2023-07-29T06:22:00;18.90;99.90
19152;DHT22;9708;53.114;9.388;2023-07-29T06:24:27;18.90;99.90
19152;DHT22;9708;53.114;9.388;2023-07-29T06:26:54;19.00;99.90
19152;DHT22;9708;53.114;9.388;2023-07-29T06:29:21;19.00;99.90
19152;DHT22;9708;53.114;9.388;2023-07-29T06:31:47;18.90;99.90
19152;DHT22;9708;53.114;9.388;2023-07-29T06:34:16;18.90;99.90
19152;DHT22;9708;53.114;9.388;2023-07-29T06:36:45;18.90;99.90
19152;DHT22;9708;53.114;9.388;2023-07-29T06:39:11;18.90;99.90
19152;DHT22;9708;53.114;9.388;2023-07-29T06:41:38;18.90;99.90
19152;DHT22;9708;53.114;9.388;2023-07-29T06:44:05;18.90;99.90
19152;DHT22;9708;53.114;9.388;2023-07-29T06:46:32;18.90;99.90
19152;DHT22;9708;53.114;9.388;2023-07-29T06:48:58;19.00;99.90
19152;DHT22;9708;53.114;9.388;2023-07-29T06:51:25;18.90;99.90
19152;DHT22;9708;53.114;9.388;2023-07-29T06:53:56;19.00;99.90
19152;DHT22;9708;53.114;9.388;2023-07-29T06:56:22;19.00;99.90
19152;DHT22;9708;53.114;9.388;2023-07-29T06:58:49;19.10;99.90
19152;DHT22;9708;53.114;9.388;2023-07-29T07:01:16;19.10;99.90
19152;DHT22;9708;53.114;9.388;2023-07-29T07:03:43;19.10;99.90
19152;DHT22;9708;53.114;9.388;2023-07-29T07:06:10;19.00;99.90
19152;DHT22;9708;53.114;9.388;2023-07-29T07:08:37;19.10;99.90
19152;DHT22;9708;53.114;9.388;2023-07-29T07:11:05;19.10;99.90
19152;DHT22;9708;53.114;9.388;2023-07-29T07:13:32;19.00;99.90
19152;DHT22;9708;53.114;9.388;2023-07-29T07:15:58;19.10;99.90
19152;DHT22;9708;53.114;9.388;2023-07-29T07:18:25;19.10;99.90
19152;DHT22;9708;53.114;9.388;2023-07-29T07:20:52;19.10;99.90
19152;DHT22;9708;53.114;9.388;2023-07-29T07:23:19;19.20;99.90
19152;DHT22;9708;53.114;9.388;2023-07-29T07:25:45;19.20;99.90
19152;DHT22;9708;53.114;9.388;2023-07-29T07:28:13;19.30;99.90
19152;DHT22;9708;53.114;9.388;2023-07-29T07:30:41;19.30;99.90
19152;DHT22;9708;53.114;9.388;2023-07-29T07:33:07;19.30;99.90
19152;DHT22;9708;53.114;9.388;2023-07-29T07:35:34;19.40;99.90
19152;DHT22;9708;53.114;9.388;2023-07-29T07:38:01;19.70;99.90
19152;DHT22;9708;53.114;9.388;2023-07-29T07:40:29;19.80;99.90
19152;DHT22;9708;53.114;9.388;2023-07-29T07:42:56;19.90;99.90
19152;DHT22;9708;53.114;9.388;2023-07-29T07:45:24;19.90;99.90
19152;DHT22;9708;53.114;9.388;2023-07-29T07:47:51;19.80;99.90
19152;DHT22;9708;53.114;9.388;2023-07-29T07:50:19;19.90;99.90
19152;DHT22;9708;53.114;9.388;2023-07-29T07:52:46;20.00;99.90
19152;DHT22;9708;53.114;9.388;2023-07-29T07:55:12;20.10;99.90
19152;DHT22;9708;53.114;9.388;2023-07-29T07:57:39;20.20;99.90
19152;DHT22;9708;53.114;9.388;2023-07-29T08:00:07;20.40;99.90
19152;DHT22;9708;53.114;9.388;2023-07-29T08:02:36;20.30;99.90
19152;DHT22;9708;53.114;9.388;2023-07-29T08:05:03;20.40;99.90
19152;DHT22;9708;53.114;9.388;2023-07-29T08:07:30;20.20;99.90
19152;DHT22;9708;53.114;9.388;2023-07-29T08:09:57;20.20;99.90
19152;DHT22;9708;53.114;9.388;2023-07-29T08:12:23;20.10;99.90
19152;DHT22;9708;53.114;9.388;2023-07-29T08:14:50;20.10;99.90
19152;DHT22;9708;53.114;9.388;2023-07-29T08:17:17;20.10;99.90
19152;DHT22;9708;53.114;9.388;2023-07-29T08:19:45;20.10;99.90
19152;DHT22;9708;53.114;9.388;2023-07-29T08:22:12;20.20;99.90
19152;DHT22;9708;53.114;9.388;2023-07-29T08:24:38;20.20;99.90
19152;DHT22;9708;53.114;9.388;2023-07-29T08:27:06;20.00;99.90
19152;DHT22;9708;53.114;9.388;2023-07-29T08:29:33;20.10;99.90
19152;DHT22;9708;53.114;9.388;2023-07-29T08:31:59;20.20;99.90
19152;DHT22;9708;53.114;9.388;2023-07-29T08:34:26;20.30;99.90
19152;DHT22;9708;53.114;9.388;2023-07-29T08:36:54;20.50;99.90
19152;DHT22;9708;53.114;9.388;2023-07-29T08:39:21;20.60;99.90
19152;DHT22;9708;53.114;9.388;2023-07-29T08:41:53;20.60;99.90
19152;DHT22;9708;53.114;9.388;2023-07-29T08:44:22;20.80;99.90
19152;DHT22;9708;53.114;9.388;2023-07-29T08:46:49;20.80;99.90
19152;DHT22;9708;53.114;9.388;2023-07-29T08:49:18;21.10;99.90
19152;DHT22;9708;53.114;9.388;2023-07-29T08:51:46;21.10;99.90
19152;DHT22;9708;53.114;9.388;2023-07-29T08:54:15;21.10;99.90
19152;DHT22;9708;53.114;9.388;2023-07-29T08:56:42;21.20;99.90
19152;DHT22;9708;53.114;9.388;2023-07-29T08:59:09;21.30;99.90
19152;DHT22;9708;53.114;9.388;2023-07-29T09:01:38;21.60;99.90
19152;DHT22;9708;53.114;9.388;2023-07-29T09:04:04;21.60;99.90
19152;DHT22;9708;53.114;9.388;2023-07-29T09:06:31;22.00;99.90
19152;DHT22;9708;53.114;9.388;2023-07-29T09:08:58;22.30;99.90
19152;DHT22;9708;53.114;9.388;2023-07-29T09:11:27;22.40;99.90
19152;DHT22;9708;53.114;9.388;2023-07-29T09:13:54;22.60;99.90
19152;DHT22;9708;53.114;9.388;2023-07-29T09:16:21;22.40;99.90
19152;DHT22;9708;53.114;9.388;2023-07-29T09:18:48;22.70;99.90
19152;DHT22;9708;53.114;9.388;2023-07-29T09:21:17;22.80;99.90
19152;DHT22;9708;53.114;9.388;2023-07-29T09:23:44;22.50;99.90
19152;DHT22;9708;53.114;9.388;2023-07-29T09:26:11;22.50;99.90
19152;DHT22;9708;53.114;9.388;2023-07-29T09:28:40;22.60;99.90
19152;DHT22;9708;53.114;9.388;2023-07-29T09:31:06;22.70;99.90
19152;DHT22;9708;53.114;9.388;2023-07-29T09:33:34;22.30;99.90
19152;DHT22;9708;53.114;9.388;2023-07-29T09:36:03;22.60;99.90
19152;DHT22;9708;53.114;9.388;2023-07-29T09:38:29;22.50;99.90
19152;DHT22;9708;53.114;9.388;2023-07-29T09:40:57;22.50;99.90
19152;DHT22;9708;53.114;9.388;2023-07-29T09:43:26;23.30;99.90
19152;DHT22;9708;53.114;9.388;2023-07-29T09:46:00;23.10;99.90
19152;DHT22;9708;53.114;9.388;2023-07-29T09:48:28;23.00;99.90
19152;DHT22;9708;53.114;9.388;2023-07-29T09:50:55;22.70;99.90
19152;DHT22;9708;53.114;9.388;2023-07-29T09:53:22;22.90;99.90
19152;DHT22;9708;53.114;9.388;2023-07-29T09:55:49;22.70;99.90
19152;DHT22;9708;53.114;9.388;2023-07-29T09:58:19;22.80;99.90
19152;DHT22;9708;53.114;9.388;2023-07-29T10:00:46;22.70;99.90
19152;DHT22;9708;53.114;9.388;2023-07-29T10:03:15;22.70;99.90
19152;DHT22;9708;53.114;9.388;2023-07-29T10:05:42;22.90;99.90
19152;DHT22;9708;53.114;9.388;2023-07-29T10:08:10;23.00;99.90
19152;DHT22;9708;53.114;9.388;2023-07-29T10:10:37;23.00;99.90
19152;DHT22;9708;53.114;9.388;2023-07-29T10:13:05;22.80;99.90
19152;DHT22;9708;53.114;9.388;2023-07-29T10:15:32;22.60;99.90
19152;DHT22;9708;53.114;9.388;2023-07-29T10:17:59;22.40;99.90
19152;DHT22;9708;53.114;9.388;2023-07-29T10:20:30;22.10;99.90
19152;DHT22;9708;53.114;9.388;2023-07-29T10:22:59;22.10;99.90
19152;DHT22;9708;53.114;9.388;2023-07-29T10:25:36;21.90;99.90
19152;DHT22;9708;53.114;9.388;2023-07-29T10:28:05;22.10;99.90
19152;DHT22;9708;53.114;9.388;2023-07-29T10:30:33;22.70;99.90
19152;DHT22;9708;53.114;9.388;2023-07-29T10:33:02;23.40;99.90
19152;DHT22;9708;53.114;9.388;2023-07-29T10:35:32;24.20;99.90
19152;DHT22;9708;53.114;9.388;2023-07-29T10:37:59;25.00;99.90
19152;DHT22;9708;53.114;9.388;2023-07-29T10:40:26;25.40;99.90
19152;DHT22;9708;53.114;9.388;2023-07-29T10:43:10;25.70;99.90
19152;DHT22;9708;53.114;9.388;2023-07-29T10:45:38;24.70;99.90
19152;DHT22;9708;53.114;9.388;2023-07-29T10:48:06;24.30;99.90
19152;DHT22;9708;53.114;9.388;2023-07-29T10:50:35;24.00;99.90
19152;DHT22;9708;53.114;9.388;2023-07-29T10:53:02;23.80;99.90
19152;DHT22;9708;53.114;9.388;2023-07-29T10:55:31;23.30;99.90
19152;DHT22;9708;53.114;9.388;2023-07-29T10:58:11;23.10;99.90
19152;DHT22;9708;53.114;9.388;2023-07-29T11:00:39;23.20;99.90
19152;DHT22;9708;53.114;9.388;2023-07-29T11:03:08;23.90;99.90
19152;DHT22;9708;53.114;9.388;2023-07-29T11:05:47;24.80;99.90
19152;DHT22;9708;53.114;9.388;2023-07-29T11:08:19;25.30;99.90
19152;DHT22;9708;53.114;9.388;2023-07-29T11:10:58;25.10;99.90
19152;DHT22;9708;53.114;9.388;2023-07-29T11:13:26;25.10;99.90
19152;DHT22;9708;53.114;9.388;2023-07-29T11:15:54;25.30;99.90
19152;DHT22;9708;53.114;9.388;2023-07-29T11:18:22;26.00;99.90
19152;DHT22;9708;53.114;9.388;2023-07-29T11:20:50;26.00;99.90
19152;DHT22;9708;53.114;9.388;2023-07-29T11:23:17;25.90;99.90
19152;DHT22;9708;53.114;9.388;2023-07-29T11:25:45;25.60;99.90
19152;DHT22;9708;53.114;9.388;2023-07-29T11:28:12;25.70;99.90
19152;DHT22;9708;53.114;9.388;2023-07-29T11:30:39;26.30;99.90
19152;DHT22;9708;53.114;9.388;2023-07-29T11:33:06;27.00;99.90
19152;DHT22;9708;53.114;9.388;2023-07-29T11:35:32;26.00;99.90
19152;DHT22;9708;53.114;9.388;2023-07-29T11:38:01;25.20;99.90
19152;DHT22;9708;53.114;9.388;2023-07-29T11:40:28;24.80;99.90
19152;DHT22;9708;53.114;9.388;2023-07-29T11:42:54;24.70;99.90
19152;DHT22;9708;53.114;9.388;2023-07-29T11:45:22;24.50;99.90
19152;DHT22;9708;53.114;9.388;2023-07-29T11:47:49;24.50;99.90
19152;DHT22;9708;53.114;9.388;2023-07-29T11:50:16;25.10;99.90
19152;DHT22;9708;53.114;9.388;2023-07-29T11:52:43;25.60;99.90
19152;DHT22;9708;53.114;9.388;2023-07-29T11:55:14;26.00;99.90
19152;DHT22;9708;53.114;9.388;2023-07-29T11:57:42;25.80;99.90
19152;DHT22;9708;53.114;9.388;2023-07-29T12:00:10;24.90;99.90
19152;DHT22;9708;53.114;9.388;2023-07-29T12:02:40;24.20;99.90
19152;DHT22;9708;53.114;9.388;2023-07-29T12:05:08;24.30;99.90
19152;DHT22;9708;53.114;9.388;2023-07-29T12:07:37;23.90;99.90
19152;DHT22;9708;53.114;9.388;2023-07-29T12:10:05;24.30;99.90
19152;DHT22;9708;53.114;9.388;2023-07-29T12:12:38;24.80;99.90
19152;DHT22;9708;53.114;9.388;2023-07-29T12:15:08;24.80;99.90
19152;DHT22;9708;53.114;9.388;2023-07-29T12:17:39;24.60;99.90
19152;DHT22;9708;53.114;9.388;2023-07-29T12:20:08;24.90;99.90
19152;DHT22;9708;53.114;9.388;2023-07-29T12:22:35;25.30;99.90
19152;DHT22;9708;53.114;9.388;2023-07-29T12:25:03;25.10;99.90
19152;DHT22;9708;53.114;9.388;2023-07-29T12:27:30;25.10;99.90
19152;DHT22;9708;53.114;9.388;2023-07-29T12:30:01;25.00;99.90
19152;DHT22;9708;53.114;9.388;2023-07-29T12:32:29;24.60;99.90
19152;DHT22;9708;53.114;9.388;2023-07-29T12:34:56;24.30;99.90
19152;DHT22;9708;53.114;9.388;2023-07-29T12:37:31;25.10;99.90
19152;DHT22;9708;53.114;9.388;2023-07-29T12:39:58;24.80;99.90
19152;DHT22;9708;53.114;9.388;2023-07-29T12:42:25;24.90;99.90
19152;DHT22;9708;53.114;9.388;2023-07-29T12:44:52;24.40;99.90
19152;DHT22;9708;53.114;9.388;2023-07-29T12:47:20;24.20;99.90
19152;DHT22;9708;53.114;9.388;2023-07-29T12:49:47;24.30;99.90
19152;DHT22;9708;53.114;9.388;2023-07-29T12:52:14;24.40;99.90
19152;DHT22;9708;53.114;9.388;2023-07-29T12:54:40;24.20;99.90
19152;DHT22;9708;53.114;9.388;2023-07-29T12:57:09;24.40;99.90
19152;DHT22;9708;53.114;9.388;2023-07-29T12:59:36;24.70;99.90
19152;DHT22;9708;53.114;9.388;2023-07-29T13:02:03;24.60;99.90
19152;DHT22;9708;53.114;9.388;2023-07-29T13:04:31;24.90;99.90
19152;DHT22;9708;53.114;9.388;2023-07-29T13:06:58;25.30;99.90
19152;DHT22;9708;53.114;9.388;2023-07-29T13:09:25;25.70;99.90
19152;DHT22;9708;53.114;9.388;2023-07-29T13:11:52;26.50;99.90
19152;DHT22;9708;53.114;9.388;2023-07-29T13:14:19;27.00;99.90
19152;DHT22;9708;53.114;9.388;2023-07-29T13:16:45;26.80;99.90
19152;DHT22;9708;53.114;9.388;2023-07-29T13:19:12;27.00;99.90
19152;DHT22;9708;53.114;9.388;2023-07-29T13:21:40;26.30;99.90
19152;DHT22;9708;53.114;9.388;2023-07-29T13:24:07;26.30;99.90
19152;DHT22;9708;53.114;9.388;2023-07-29T13:26:34;26.60;99.90
19152;DHT22;9708;53.114;9.388;2023-07-29T13:29:01;26.90;99.90
19152;DHT22;9708;53.114;9.388;2023-07-29T13:31:29;26.80;99.90
19152;DHT22;9708;53.114;9.388;2023-07-29T13:33:56;26.90;99.90
19152;DHT22;9708;53.114;9.388;2023-07-29T13:36:23;27.00;99.90
19152;DHT22;9708;53.114;9.388;2023-07-29T13:38:51;27.10;99.90
19152;DHT22;9708;53.114;9.388;2023-07-29T13:41:18;26.90;99.90
19152;DHT22;9708;53.114;9.388;2023-07-29T13:43:45;26.50;99.90
19152;DHT22;9708;53.114;9.388;2023-07-29T13:46:11;26.00;99.90
19152;DHT22;9708;53.114;9.388;2023-07-29T13:48:38;26.20;99.90
19152;DHT22;9708;53.114;9.388;2023-07-29T13:51:05;26.10;99.90
19152;DHT22;9708;53.114;9.388;2023-07-29T13:53:32;26.30;99.90
19152;DHT22;9708;53.114;9.388;2023-07-29T13:56:00;26.30;99.90
19152;DHT22;9708;53.114;9.388;2023-07-29T13:58:27;26.60;99.90
19152;DHT22;9708;53.114;9.388;2023-07-29T14:00:53;26.20;99.90
19152;DHT22;9708;53.114;9.388;2023-07-29T14:03:20;25.50;99.90
19152;DHT22;9708;53.114;9.388;2023-07-29T14:05:47;25.80;99.90
19152;DHT22;9708;53.114;9.388;2023-07-29T14:08:14;25.50;99.90
19152;DHT22;9708;53.114;9.388;2023-07-29T14:10:41;24.90;99.90
19152;DHT22;9708;53.114;9.388;2023-07-29T14:13:09;24.50;99.90
19152;DHT22;9708;53.114;9.388;2023-07-29T14:15:36;24.40;99.90
19152;DHT22;9708;53.114;9.388;2023-07-29T14:18:02;24.50;99.90
19152;DHT22;9708;53.114;9.388;2023-07-29T14:20:29;24.70;99.90
19152;DHT22;9708;53.114;9.388;2023-07-29T14:22:56;24.80;99.90
19152;DHT22;9708;53.114;9.388;2023-07-29T14:25:23;24.80;99.90
19152;DHT22;9708;53.114;9.388;2023-07-29T14:27:50;24.40;99.90
19152;DHT22;9708;53.114;9.388;2023-07-29T14:30:18;24.30;99.90
19152;DHT22;9708;53.114;9.388;2023-07-29T14:32:45;24.50;99.90
19152;DHT22;9708;53.114;9.388;2023-07-29T14:35:12;24.40;99.90
19152;DHT22;9708;53.114;9.388;2023-07-29T14:37:39;24.50;99.90
19152;DHT22;9708;53.114;9.388;2023-07-29T14:40:07;24.60;99.90
19152;DHT22;9708;53.114;9.388;2023-07-29T14:42:33;24.50;99.90
19152;DHT22;9708;53.114;9.388;2023-07-29T14:45:00;24.50;99.90
19152;DHT22;9708;53.114;9.388;2023-07-29T14:47:28;24.50;99.90
19152;DHT22;9708;53.114;9.388;2023-07-29T14:50:00;24.60;99.90
19152;DHT22;9708;53.114;9.388;2023-07-29T14:52:26;24.50;99.90
19152;DHT22;9708;53.114;9.388;2023-07-29T14:54:53;24.50;99.90
19152;DHT22;9708;53.114;9.388;2023-07-29T14:57:20;24.50;99.90
19152;DHT22;9708;53.114;9.388;2023-07-29T14:59:47;24.50;99.90
19152;DHT22;9708;53.114;9.388;2023-07-29T15:02:14;24.50;99.90
19152;DHT22;9708;53.114;9.388;2023-07-29T15:04:42;24.40;99.90
19152;DHT22;9708;53.114;9.388;2023-07-29T15:07:09;24.50;99.90
19152;DHT22;9708;53.114;9.388;2023-07-29T15:09:35;24.50;99.90
19152;DHT22;9708;53.114;9.388;2023-07-29T15:12:03;24.50;99.90
19152;DHT22;9708;53.114;9.388;2023-07-29T15:14:30;24.40;99.90
19152;DHT22;9708;53.114;9.388;2023-07-29T15:16:57;24.40;99.90
19152;DHT22;9708;53.114;9.388;2023-07-29T15:19:23;24.50;99.90
19152;DHT22;9708;53.114;9.388;2023-07-29T15:21:52;24.50;99.90
19152;DHT22;9708;53.114;9.388;2023-07-29T15:24:18;24.50;99.90
19152;DHT22;9708;53.114;9.388;2023-07-29T15:26:45;24.20;99.90
19152;DHT22;9708;53.114;9.388;2023-07-29T15:29:12;24.10;99.90
19152;DHT22;9708;53.114;9.388;2023-07-29T15:31:40;24.00;99.90
19152;DHT22;9708;53.114;9.388;2023-07-29T15:34:07;24.00;99.90
19152;DHT22;9708;53.114;9.388;2023-07-29T15:36:34;23.80;99.90
19152;DHT22;9708;53.114;9.388;2023-07-29T15:39:02;23.80;99.90
19152;DHT22;9708;53.114;9.388;2023-07-29T15:41:31;23.70;99.90
19152;DHT22;9708;53.114;9.388;2023-07-29T15:43:58;23.50;99.90
19152;DHT22;9708;53.114;9.388;2023-07-29T15:46:25;23.10;99.90